sensor_id;sensor_type;location;lat;lon;timestamp;temperature;humidity
60027;DHT22;45891;53.006;6.512;2023-05-02T00:00:38;10.60;99.90
60027;DHT22;45891;53.006;6.512;2023-05-02T00:03:05;10.60;99.90
60027;DHT22;45891;53.006;6.512;2023-05-02T00:05:33;10.50;99.90
60027;DHT22;45891;53.006;6.512;2023-05-02T00:07:59;10.50;99.90
60027;DHT22;45891;53.006;6.512;2023-05-02T00:10:25;10.40;99.90
60027;DHT22;45891;53.006;6.512;2023-05-02T00:12:51;10.40;99.90
60027;DHT22;45891;53.006;6.512;2023-05-02T00:15:18;10.30;99.90
60027;DHT22;45891;53.006;6.512;2023-05-02T00:17:44;10.30;99.90
60027;DHT22;45891;53.006;6.512;2023-05-02T00:20:11;10.20;99.90
60027;DHT22;45891;53.006;6.512;2023-05-02T00:22:38;10.20;99.90
60027;DHT22;45891;53.006;6.512;2023-05-02T00:25:04;10.20;99.90
60027;DHT22;45891;53.006;6.512;2023-05-02T00:27:31;10.10;99.90
60027;DHT22;45891;53.006;6.512;2023-05-02T00:29:58;10.10;99.90
60027;DHT22;45891;53.006;6.512;2023-05-02T00:32:25;10.10;99.90
60027;DHT22;45891;53.006;6.512;2023-05-02T00:34:52;10.00;99.90
60027;DHT22;45891;53.006;6.512;2023-05-02T00:37:18;10.00;99.90
60027;DHT22;45891;53.006;6.512;2023-05-02T00:39:44;10.00;99.90
60027;DHT22;45891;53.006;6.512;2023-05-02T00:42:11;9.90;99.90
60027;DHT22;45891;53.006;6.512;2023-05-02T00:44:37;10.00;99.90
60027;DHT22;45891;53.006;6.512;2023-05-02T00:47:03;9.90;99.90
60027;DHT22;45891;53.006;6.512;2023-05-02T00:49:29;9.90;99.90
60027;DHT22;45891;53.006;6.512;2023-05-02T00:51:57;10.00;99.90
60027;DHT22;45891;53.006;6.512;2023-05-02T00:54:23;10.00;99.90
60027;DHT22;45891;53.006;6.512;2023-05-02T00:56:50;10.00;99.90
60027;DHT22;45891;53.006;6.512;2023-05-02T00:59:16;9.90;99.90
60027;DHT22;45891;53.006;6.512;2023-05-02T01:07:21;9.90;99.90
60027;DHT22;45891;53.006;6.512;2023-05-02T01:12:46;9.90;99.90
60027;DHT22;45891;53.006;6.512;2023-05-02T01:15:20;9.80;99.90
60027;DHT22;45891;53.006;6.512;2023-05-02T01:17:47;9.80;99.90
60027;DHT22;45891;53.006;6.512;2023-05-02T01:20:18;9.80;99.90
60027;DHT22;45891;53.006;6.512;2023-05-02T01:22:45;9.80;99.90
60027;DHT22;45891;53.006;6.512;2023-05-02T01:30:42;9.70;99.90
60027;DHT22;45891;53.006;6.512;2023-05-02T01:33:12;9.70;99.90
60027;DHT22;45891;53.006;6.512;2023-05-02T01:35:39;9.60;99.90
60027;DHT22;45891;53.006;6.512;2023-05-02T01:38:06;9.60;99.90
60027;DHT22;45891;53.006;6.512;2023-05-02T01:40:33;9.50;99.90
60027;DHT22;45891;53.006;6.512;2023-05-02T01:43:02;9.50;99.90
60027;DHT22;45891;53.006;6.512;2023-05-02T01:45:30;9.50;99.90
60027;DHT22;45891;53.006;6.512;2023-05-02T01:47:59;9.60;99.90
60027;DHT22;45891;53.006;6.512;2023-05-02T01:50:26;9.60;99.90
60027;DHT22;45891;53.006;6.512;2023-05-02T01:52:53;9.50;99.90
60027;DHT22;45891;53.006;6.512;2023-05-02T01:55:21;9.50;99.90
60027;DHT22;45891;53.006;6.512;2023-05-02T01:57:49;9.60;99.90
60027;DHT22;45891;53.006;6.512;2023-05-02T02:00:17;9.60;99.90
60027;DHT22;45891;53.006;6.512;2023-05-02T02:02:45;9.60;99.90
60027;DHT22;45891;53.006;6.512;2023-05-02T02:05:13;9.40;99.90
60027;DHT22;45891;53.006;6.512;2023-05-02T02:07:42;9.30;99.90
60027;DHT22;45891;53.006;6.512;2023-05-02T02:10:08;9.20;99.90
60027;DHT22;45891;53.006;6.512;2023-05-02T02:12:42;9.20;99.90
60027;DHT22;45891;53.006;6.512;2023-05-02T02:17:42;9.10;99.90
60027;DHT22;45891;53.006;6.512;2023-05-02T02:20:11;9.10;99.90
60027;DHT22;45891;53.006;6.512;2023-05-02T02:22:40;9.00;99.90
60027;DHT22;45891;53.006;6.512;2023-05-02T02:25:11;9.00;99.90
60027;DHT22;45891;53.006;6.512;2023-05-02T02:27:38;9.00;99.90
60027;DHT22;45891;53.006;6.512;2023-05-02T02:30:06;9.00;99.90
60027;DHT22;45891;53.006;6.512;2023-05-02T02:32:33;8.90;99.90
60027;DHT22;45891;53.006;6.512;2023-05-02T02:34:59;8.90;99.90
60027;DHT22;45891;53.006;6.512;2023-05-02T02:37:32;8.90;99.90
60027;DHT22;45891;53.006;6.512;2023-05-02T02:42:56;8.80;99.90
60027;DHT22;45891;53.006;6.512;2023-05-02T02:45:39;8.70;99.90
60027;DHT22;45891;53.006;6.512;2023-05-02T02:51:05;8.60;99.90
60027;DHT22;45891;53.006;6.512;2023-05-02T02:53:51;8.60;99.90
60027;DHT22;45891;53.006;6.512;2023-05-02T02:56:26;8.50;99.90
60027;DHT22;45891;53.006;6.512;2023-05-02T02:59:02;8.40;99.90
60027;DHT22;45891;53.006;6.512;2023-05-02T03:01:31;8.40;99.90
60027;DHT22;45891;53.006;6.512;2023-05-02T03:03:58;8.40;99.90
60027;DHT22;45891;53.006;6.512;2023-05-02T03:06:24;8.30;99.90
60027;DHT22;45891;53.006;6.512;2023-05-02T03:08:52;8.30;99.90
60027;DHT22;45891;53.006;6.512;2023-05-02T03:11:18;8.20;99.90
60027;DHT22;45891;53.006;6.512;2023-05-02T03:13:44;8.20;99.90
60027;DHT22;45891;53.006;6.512;2023-05-02T03:18:53;8.20;99.90
60027;DHT22;45891;53.006;6.512;2023-05-02T03:21:19;8.20;99.90
60027;DHT22;45891;53.006;6.512;2023-05-02T03:23:45;8.10;99.90
60027;DHT22;45891;53.006;6.512;2023-05-02T03:26:11;8.10;99.90
60027;DHT22;45891;53.006;6.512;2023-05-02T03:28:38;8.10;99.90
60027;DHT22;45891;53.006;6.512;2023-05-02T03:31:04;8.10;99.90
60027;DHT22;45891;53.006;6.512;2023-05-02T03:33:30;8.00;99.90
60027;DHT22;45891;53.006;6.512;2023-05-02T03:35:57;7.90;99.90
60027;DHT22;45891;53.006;6.512;2023-05-02T03:38:23;7.90;99.90
60027;DHT22;45891;53.006;6.512;2023-05-02T03:40:49;7.80;99.90
60027;DHT22;45891;53.006;6.512;2023-05-02T03:43:15;7.70;99.90
60027;DHT22;45891;53.006;6.512;2023-05-02T03:45:42;7.60;99.90
60027;DHT22;45891;53.006;6.512;2023-05-02T03:48:08;7.60;99.90
60027;DHT22;45891;53.006;6.512;2023-05-02T03:50:34;7.60;99.90
60027;DHT22;45891;53.006;6.512;2023-05-02T03:53:00;7.50;99.90
60027;DHT22;45891;53.006;6.512;2023-05-02T03:55:26;7.60;99.90
60027;DHT22;45891;53.006;6.512;2023-05-02T03:57:53;7.60;99.90
60027;DHT22;45891;53.006;6.512;2023-05-02T04:00:19;7.50;99.90
60027;DHT22;45891;53.006;6.512;2023-05-02T04:02:45;7.60;99.90
60027;DHT22;45891;53.006;6.512;2023-05-02T04:05:11;7.60;99.90
60027;DHT22;45891;53.006;6.512;2023-05-02T04:07:37;7.60;99.90
60027;DHT22;45891;53.006;6.512;2023-05-02T04:10:04;7.60;99.90
60027;DHT22;45891;53.006;6.512;2023-05-02T04:12:30;7.60;99.90
60027;DHT22;45891;53.006;6.512;2023-05-02T04:14:56;7.60;99.90
60027;DHT22;45891;53.006;6.512;2023-05-02T04:17:22;7.50;99.90
60027;DHT22;45891;53.006;6.512;2023-05-02T04:19:48;7.50;99.90
60027;DHT22;45891;53.006;6.512;2023-05-02T04:22:16;7.50;99.90
60027;DHT22;45891;53.006;6.512;2023-05-02T04:24:42;7.50;99.90
60027;DHT22;45891;53.006;6.512;2023-05-02T04:27:08;7.50;99.90
60027;DHT22;45891;53.006;6.512;2023-05-02T04:29:34;7.40;99.90
60027;DHT22;45891;53.006;6.512;2023-05-02T04:32:00;7.40;99.90
60027;DHT22;45891;53.006;6.512;2023-05-02T04:34:27;7.40;99.90
60027;DHT22;45891;53.006;6.512;2023-05-02T04:36:53;7.30;99.90
60027;DHT22;45891;53.006;6.512;2023-05-02T04:39:19;7.40;99.90
60027;DHT22;45891;53.006;6.512;2023-05-02T04:41:45;7.40;99.90
60027;DHT22;45891;53.006;6.512;2023-05-02T04:44:11;7.40;99.90
60027;DHT22;45891;53.006;6.512;2023-05-02T04:46:37;7.40;99.90
60027;DHT22;45891;53.006;6.512;2023-05-02T04:49:03;7.40;99.90
60027;DHT22;45891;53.006;6.512;2023-05-02T04:51:30;7.50;99.90
60027;DHT22;45891;53.006;6.512;2023-05-02T04:53:56;7.50;99.90
60027;DHT22;45891;53.006;6.512;2023-05-02T04:56:22;7.40;99.90
60027;DHT22;45891;53.006;6.512;2023-05-02T04:58:48;7.50;99.90
60027;DHT22;45891;53.006;6.512;2023-05-02T05:01:14;7.40;99.90
60027;DHT22;45891;53.006;6.512;2023-05-02T05:03:41;7.50;99.90
60027;DHT22;45891;53.006;6.512;2023-05-02T05:06:07;7.50;99.90
60027;DHT22;45891;53.006;6.512;2023-05-02T05:08:33;7.50;99.90
60027;DHT22;45891;53.006;6.512;2023-05-02T05:11:00;7.60;99.90
60027;DHT22;45891;53.006;6.512;2023-05-02T05:13:26;7.60;99.90
60027;DHT22;45891;53.006;6.512;2023-05-02T05:15:53;7.60;99.90
60027;DHT22;45891;53.006;6.512;2023-05-02T05:18:19;7.70;99.90
60027;DHT22;45891;53.006;6.512;2023-05-02T05:20:46;7.70;99.90
60027;DHT22;45891;53.006;6.512;2023-05-02T05:23:12;7.70;99.90
60027;DHT22;45891;53.006;6.512;2023-05-02T05:25:38;7.60;99.90
60027;DHT22;45891;53.006;6.512;2023-05-02T05:28:05;7.60;99.90
60027;DHT22;45891;53.006;6.512;2023-05-02T05:30:31;7.60;99.90
60027;DHT22;45891;53.006;6.512;2023-05-02T05:32:57;7.60;99.90
60027;DHT22;45891;53.006;6.512;2023-05-02T05:35:24;7.60;99.90
60027;DHT22;45891;53.006;6.512;2023-05-02T05:37:50;7.60;99.90
60027;DHT22;45891;53.006;6.512;2023-05-02T05:40:17;7.60;99.90
60027;DHT22;45891;53.006;6.512;2023-05-02T05:42:43;7.70;99.90
60027;DHT22;45891;53.006;6.512;2023-05-02T05:45:09;7.70;99.90
60027;DHT22;45891;53.006;6.512;2023-05-02T05:47:35;7.70;99.90
60027;DHT22;45891;53.006;6.512;2023-05-02T05:50:01;7.70;99.90
60027;DHT22;45891;53.006;6.512;2023-05-02T05:52:27;7.80;99.90
60027;DHT22;45891;53.006;6.512;2023-05-02T05:54:54;7.80;99.90
60027;DHT22;45891;53.006;6.512;2023-05-02T05:57:23;7.80;99.90
60027;DHT22;45891;53.006;6.512;2023-05-02T05:59:49;7.80;99.90
60027;DHT22;45891;53.006;6.512;2023-05-02T06:02:15;7.90;99.90
60027;DHT22;45891;53.006;6.512;2023-05-02T06:04:41;7.90;99.90
60027;DHT22;45891;53.006;6.512;2023-05-02T06:07:07;8.00;99.90
60027;DHT22;45891;53.006;6.512;2023-05-02T06:09:33;8.00;99.90
60027;DHT22;45891;53.006;6.512;2023-05-02T06:12:03;8.00;99.90
60027;DHT22;45891;53.006;6.512;2023-05-02T06:14:29;8.00;99.90
60027;DHT22;45891;53.006;6.512;2023-05-02T06:16:58;8.10;99.90
60027;DHT22;45891;53.006;6.512;2023-05-02T06:19:24;8.10;99.90
60027;DHT22;45891;53.006;6.512;2023-05-02T06:21:50;8.10;99.90
60027;DHT22;45891;53.006;6.512;2023-05-02T06:24:16;8.10;99.90
60027;DHT22;45891;53.006;6.512;2023-05-02T06:26:42;8.20;99.90
60027;DHT22;45891;53.006;6.512;2023-05-02T06:29:09;8.20;99.90
60027;DHT22;45891;53.006;6.512;2023-05-02T06:31:35;8.30;99.90
60027;DHT22;45891;53.006;6.512;2023-05-02T06:34:01;8.30;99.90
60027;DHT22;45891;53.006;6.512;2023-05-02T06:36:27;8.20;99.90
60027;DHT22;45891;53.006;6.512;2023-05-02T06:38:53;8.30;99.90
60027;DHT22;45891;53.006;6.512;2023-05-02T06:41:19;8.20;99.90
60027;DHT22;45891;53.006;6.512;2023-05-02T06:43:45;8.30;99.90
60027;DHT22;45891;53.006;6.512;2023-05-02T06:46:11;8.20;99.90
60027;DHT22;45891;53.006;6.512;2023-05-02T06:48:37;8.30;99.90
60027;DHT22;45891;53.006;6.512;2023-05-02T06:51:04;8.40;99.90
60027;DHT22;45891;53.006;6.512;2023-05-02T06:53:30;8.30;99.90
60027;DHT22;45891;53.006;6.512;2023-05-02T06:55:56;8.40;99.90
60027;DHT22;45891;53.006;6.512;2023-05-02T06:58:23;8.40;99.90
60027;DHT22;45891;53.006;6.512;2023-05-02T07:00:49;8.40;99.90
60027;DHT22;45891;53.006;6.512;2023-05-02T07:03:15;8.40;99.90
60027;DHT22;45891;53.006;6.512;2023-05-02T07:05:41;8.30;99.90
60027;DHT22;45891;53.006;6.512;2023-05-02T07:08:07;8.30;99.90
60027;DHT22;45891;53.006;6.512;2023-05-02T07:10:35;8.30;99.90
60027;DHT22;45891;53.006;6.512;2023-05-02T07:13:01;8.30;99.90
60027;DHT22;45891;53.006;6.512;2023-05-02T07:15:27;8.30;99.90
60027;DHT22;45891;53.006;6.512;2023-05-02T07:17:53;8.40;99.90
60027;DHT22;45891;53.006;6.512;2023-05-02T07:20:19;8.40;99.90
60027;DHT22;45891;53.006;6.512;2023-05-02T07:22:46;8.40;99.90
60027;DHT22;45891;53.006;6.512;2023-05-02T07:25:12;8.40;99.90
60027;DHT22;45891;53.006;6.512;2023-05-02T07:27:38;8.40;99.90
60027;DHT22;45891;53.006;6.512;2023-05-02T07:30:05;8.40;99.90
60027;DHT22;45891;53.006;6.512;2023-05-02T07:32:31;8.40;99.90
60027;DHT22;45891;53.006;6.512;2023-05-02T07:34:57;8.40;99.90
60027;DHT22;45891;53.006;6.512;2023-05-02T07:37:24;8.40;99.90
60027;DHT22;45891;53.006;6.512;2023-05-02T07:39:50;8.50;99.90
60027;DHT22;45891;53.006;6.512;2023-05-02T07:42:16;8.50;99.40
60027;DHT22;45891;53.006;6.512;2023-05-02T07:44:42;8.60;99.10
60027;DHT22;45891;53.006;6.512;2023-05-02T07:47:08;8.80;98.80
60027;DHT22;45891;53.006;6.512;2023-05-02T07:49:34;8.90;98.80
60027;DHT22;45891;53.006;6.512;2023-05-02T07:52:01;9.00;98.50
60027;DHT22;45891;53.006;6.512;2023-05-02T07:54:28;9.20;98.00
60027;DHT22;45891;53.006;6.512;2023-05-02T07:56:55;9.10;97.70
60027;DHT22;45891;53.006;6.512;2023-05-02T07:59:23;9.30;98.40
60027;DHT22;45891;53.006;6.512;2023-05-02T08:01:49;9.40;97.50
60027;DHT22;45891;53.006;6.512;2023-05-02T08:04:16;9.40;97.80
60027;DHT22;45891;53.006;6.512;2023-05-02T08:06:43;9.30;97.40
60027;DHT22;45891;53.006;6.512;2023-05-02T08:09:09;9.40;97.40
60027;DHT22;45891;53.006;6.512;2023-05-02T08:11:36;9.30;97.60
60027;DHT22;45891;53.006;6.512;2023-05-02T08:14:02;9.30;97.90
60027;DHT22;45891;53.006;6.512;2023-05-02T08:16:28;9.30;97.80
60027;DHT22;45891;53.006;6.512;2023-05-02T08:18:54;9.40;97.60
60027;DHT22;45891;53.006;6.512;2023-05-02T08:21:20;9.50;98.00
60027;DHT22;45891;53.006;6.512;2023-05-02T08:23:47;9.50;97.90
60027;DHT22;45891;53.006;6.512;2023-05-02T08:26:13;9.40;97.70
60027;DHT22;45891;53.006;6.512;2023-05-02T08:28:40;9.40;97.70
60027;DHT22;45891;53.006;6.512;2023-05-02T08:31:06;9.40;97.90
60027;DHT22;45891;53.006;6.512;2023-05-02T08:33:32;9.40;97.90
60027;DHT22;45891;53.006;6.512;2023-05-02T08:35:58;9.40;97.80
60027;DHT22;45891;53.006;6.512;2023-05-02T08:38:25;9.50;98.00
60027;DHT22;45891;53.006;6.512;2023-05-02T08:40:51;9.30;97.90
60027;DHT22;45891;53.006;6.512;2023-05-02T08:43:18;9.20;98.20
60027;DHT22;45891;53.006;6.512;2023-05-02T08:45:45;9.30;98.20
60027;DHT22;45891;53.006;6.512;2023-05-02T08:48:12;9.40;98.50
60027;DHT22;45891;53.006;6.512;2023-05-02T08:50:42;9.50;98.70
60027;DHT22;45891;53.006;6.512;2023-05-02T08:53:10;9.60;98.60
60027;DHT22;45891;53.006;6.512;2023-05-02T08:55:41;9.60;98.50
60027;DHT22;45891;53.006;6.512;2023-05-02T08:58:08;9.80;98.70
60027;DHT22;45891;53.006;6.512;2023-05-02T09:00:39;10.00;98.60
60027;DHT22;45891;53.006;6.512;2023-05-02T09:03:28;10.30;98.60
60027;DHT22;45891;53.006;6.512;2023-05-02T09:06:18;10.70;97.60
60027;DHT22;45891;53.006;6.512;2023-05-02T09:08:47;10.70;97.20
60027;DHT22;45891;53.006;6.512;2023-05-02T09:11:19;10.60;97.30
60027;DHT22;45891;53.006;6.512;2023-05-02T09:13:47;10.60;97.10
60027;DHT22;45891;53.006;6.512;2023-05-02T09:16:18;10.50;97.50
60027;DHT22;45891;53.006;6.512;2023-05-02T09:18:52;10.20;96.60
60027;DHT22;45891;53.006;6.512;2023-05-02T09:21:20;10.10;97.40
60027;DHT22;45891;53.006;6.512;2023-05-02T09:23:57;10.10;97.80
60027;DHT22;45891;53.006;6.512;2023-05-02T09:26:30;10.20;97.50
60027;DHT22;45891;53.006;6.512;2023-05-02T09:29:02;10.30;97.70
60027;DHT22;45891;53.006;6.512;2023-05-02T09:31:32;10.30;97.00
60027;DHT22;45891;53.006;6.512;2023-05-02T09:34:13;10.50;97.40
60027;DHT22;45891;53.006;6.512;2023-05-02T09:36:44;10.70;96.30
60027;DHT22;45891;53.006;6.512;2023-05-02T09:39:15;10.60;96.70
60027;DHT22;45891;53.006;6.512;2023-05-02T09:41:42;10.60;96.30
60027;DHT22;45891;53.006;6.512;2023-05-02T09:44:10;10.20;96.70
60027;DHT22;45891;53.006;6.512;2023-05-02T09:49:10;10.80;96.80
60027;DHT22;45891;53.006;6.512;2023-05-02T09:51:36;10.90;97.00
60027;DHT22;45891;53.006;6.512;2023-05-02T09:54:03;11.00;96.80
60027;DHT22;45891;53.006;6.512;2023-05-02T09:56:29;11.10;96.70
60027;DHT22;45891;53.006;6.512;2023-05-02T09:59:14;10.80;96.40
60027;DHT22;45891;53.006;6.512;2023-05-02T10:01:41;10.80;96.00
60027;DHT22;45891;53.006;6.512;2023-05-02T10:04:12;10.60;96.70
60027;DHT22;45891;53.006;6.512;2023-05-02T10:06:44;10.60;96.00
60027;DHT22;45891;53.006;6.512;2023-05-02T10:09:10;10.50;96.70
60027;DHT22;45891;53.006;6.512;2023-05-02T10:11:41;10.60;96.90
60027;DHT22;45891;53.006;6.512;2023-05-02T10:14:09;10.80;96.80
60027;DHT22;45891;53.006;6.512;2023-05-02T10:16:37;11.10;96.70
60027;DHT22;45891;53.006;6.512;2023-05-02T10:19:09;11.30;96.50
60027;DHT22;45891;53.006;6.512;2023-05-02T10:21:39;11.30;95.90
60027;DHT22;45891;53.006;6.512;2023-05-02T10:24:07;11.80;95.70
60027;DHT22;45891;53.006;6.512;2023-05-02T10:26:35;12.10;94.80
60027;DHT22;45891;53.006;6.512;2023-05-02T10:29:01;12.00;95.00
60027;DHT22;45891;53.006;6.512;2023-05-02T10:31:32;12.00;95.10
60027;DHT22;45891;53.006;6.512;2023-05-02T10:34:00;12.10;95.60
60027;DHT22;45891;53.006;6.512;2023-05-02T10:36:27;12.10;95.30
60027;DHT22;45891;53.006;6.512;2023-05-02T10:38:54;11.90;95.30
60027;DHT22;45891;53.006;6.512;2023-05-02T10:41:25;12.00;95.20
60027;DHT22;45891;53.006;6.512;2023-05-02T10:43:52;12.60;95.50
60027;DHT22;45891;53.006;6.512;2023-05-02T10:46:35;13.90;95.20
60027;DHT22;45891;53.006;6.512;2023-05-02T10:49:02;14.00;93.00
60027;DHT22;45891;53.006;6.512;2023-05-02T10:51:29;13.00;94.40
60027;DHT22;45891;53.006;6.512;2023-05-02T10:59:34;11.70;94.80
60027;DHT22;45891;53.006;6.512;2023-05-02T11:02:01;11.70;96.00
60027;DHT22;45891;53.006;6.512;2023-05-02T11:07:29;12.00;95.10
60027;DHT22;45891;53.006;6.512;2023-05-02T11:15:13;14.10;93.10
60027;DHT22;45891;53.006;6.512;2023-05-02T11:20:24;13.80;93.60
60027;DHT22;45891;53.006;6.512;2023-05-02T11:22:51;13.60;94.20
60027;DHT22;45891;53.006;6.512;2023-05-02T11:25:34;13.50;93.90
60027;DHT22;45891;53.006;6.512;2023-05-02T11:28:01;13.20;94.20
60027;DHT22;45891;53.006;6.512;2023-05-02T11:30:42;12.70;94.70
60027;DHT22;45891;53.006;6.512;2023-05-02T11:35:35;12.30;94.90
60027;DHT22;45891;53.006;6.512;2023-05-02T11:38:08;12.40;95.10
60027;DHT22;45891;53.006;6.512;2023-05-02T11:40:34;12.40;95.20
60027;DHT22;45891;53.006;6.512;2023-05-02T11:43:14;12.30;95.90
60027;DHT22;45891;53.006;6.512;2023-05-02T11:45:40;12.20;96.10
60027;DHT22;45891;53.006;6.512;2023-05-02T11:48:11;12.00;95.90
60027;DHT22;45891;53.006;6.512;2023-05-02T11:50:42;11.90;96.30
60027;DHT22;45891;53.006;6.512;2023-05-02T11:53:13;11.70;96.80
60027;DHT22;45891;53.006;6.512;2023-05-02T11:55:53;11.70;96.80
60027;DHT22;45891;53.006;6.512;2023-05-02T11:58:22;12.00;96.90
60027;DHT22;45891;53.006;6.512;2023-05-02T12:00:49;12.00;96.70
60027;DHT22;45891;53.006;6.512;2023-05-02T12:03:42;12.20;96.80
60027;DHT22;45891;53.006;6.512;2023-05-02T12:06:17;12.70;96.20
60027;DHT22;45891;53.006;6.512;2023-05-02T12:08:44;12.50;95.90
60027;DHT22;45891;53.006;6.512;2023-05-02T12:11:14;12.00;95.60
60027;DHT22;45891;53.006;6.512;2023-05-02T12:13:45;12.00;95.70
60027;DHT22;45891;53.006;6.512;2023-05-02T12:16:12;11.90;95.20
60027;DHT22;45891;53.006;6.512;2023-05-02T12:18:39;11.90;95.70
60027;DHT22;45891;53.006;6.512;2023-05-02T12:21:07;11.80;96.00
60027;DHT22;45891;53.006;6.512;2023-05-02T12:23:33;11.80;96.20
60027;DHT22;45891;53.006;6.512;2023-05-02T12:26:21;12.20;95.70
60027;DHT22;45891;53.006;6.512;2023-05-02T12:28:51;12.80;96.00
60027;DHT22;45891;53.006;6.512;2023-05-02T12:31:19;13.40;95.20
60027;DHT22;45891;53.006;6.512;2023-05-02T12:33:46;13.20;94.70
60027;DHT22;45891;53.006;6.512;2023-05-02T12:36:17;13.10;95.00
60027;DHT22;45891;53.006;6.512;2023-05-02T12:38:48;13.20;94.70
60027;DHT22;45891;53.006;6.512;2023-05-02T12:41:16;13.20;95.00
60027;DHT22;45891;53.006;6.512;2023-05-02T12:43:46;12.30;94.70
60027;DHT22;45891;53.006;6.512;2023-05-02T12:46:12;11.80;95.70
60027;DHT22;45891;53.006;6.512;2023-05-02T12:48:38;11.80;95.30
60027;DHT22;45891;53.006;6.512;2023-05-02T12:51:05;11.40;95.90
60027;DHT22;45891;53.006;6.512;2023-05-02T12:53:42;11.50;96.10
60027;DHT22;45891;53.006;6.512;2023-05-02T12:56:10;12.10;96.00
60027;DHT22;45891;53.006;6.512;2023-05-02T12:58:40;12.30;95.90
60027;DHT22;45891;53.006;6.512;2023-05-02T13:01:07;12.20;96.30
60027;DHT22;45891;53.006;6.512;2023-05-02T13:03:33;12.70;95.40
60027;DHT22;45891;53.006;6.512;2023-05-02T13:05:59;12.60;94.50
60027;DHT22;45891;53.006;6.512;2023-05-02T13:08:25;12.70;94.20
60027;DHT22;45891;53.006;6.512;2023-05-02T13:10:51;12.30;94.10
60027;DHT22;45891;53.006;6.512;2023-05-02T13:13:18;12.10;94.30
60027;DHT22;45891;53.006;6.512;2023-05-02T13:15:44;12.30;94.50
60027;DHT22;45891;53.006;6.512;2023-05-02T13:18:10;12.60;93.60
60027;DHT22;45891;53.006;6.512;2023-05-02T13:20:36;13.20;93.70
60027;DHT22;45891;53.006;6.512;2023-05-02T13:23:02;13.50;93.90
60027;DHT22;45891;53.006;6.512;2023-05-02T13:25:28;13.50;93.10
60027;DHT22;45891;53.006;6.512;2023-05-02T13:27:54;12.90;93.50
60027;DHT22;45891;53.006;6.512;2023-05-02T13:30:21;13.20;93.90
60027;DHT22;45891;53.006;6.512;2023-05-02T13:32:47;13.30;94.00
60027;DHT22;45891;53.006;6.512;2023-05-02T13:35:13;13.20;94.20
60027;DHT22;45891;53.006;6.512;2023-05-02T13:37:40;13.10;93.80
60027;DHT22;45891;53.006;6.512;2023-05-02T13:40:07;13.00;93.90
60027;DHT22;45891;53.006;6.512;2023-05-02T13:42:33;13.10;93.50
60027;DHT22;45891;53.006;6.512;2023-05-02T13:44:59;12.80;93.20
60027;DHT22;45891;53.006;6.512;2023-05-02T13:47:30;13.00;93.50
60027;DHT22;45891;53.006;6.512;2023-05-02T13:49:56;14.10;92.40
60027;DHT22;45891;53.006;6.512;2023-05-02T13:52:22;13.80;92.30
60027;DHT22;45891;53.006;6.512;2023-05-02T13:54:48;13.30;93.80
60027;DHT22;45891;53.006;6.512;2023-05-02T13:57:14;12.70;94.60
60027;DHT22;45891;53.006;6.512;2023-05-02T13:59:40;11.90;95.00
60027;DHT22;45891;53.006;6.512;2023-05-02T14:02:06;11.90;95.60
60027;DHT22;45891;53.006;6.512;2023-05-02T14:04:32;12.10;95.30
60027;DHT22;45891;53.006;6.512;2023-05-02T14:06:59;12.30;95.20
60027;DHT22;45891;53.006;6.512;2023-05-02T14:09:25;12.20;94.80
60027;DHT22;45891;53.006;6.512;2023-05-02T14:11:51;12.40;94.70
60027;DHT22;45891;53.006;6.512;2023-05-02T14:14:17;12.50;94.30
60027;DHT22;45891;53.006;6.512;2023-05-02T14:16:43;12.40;94.00
60027;DHT22;45891;53.006;6.512;2023-05-02T14:19:09;12.50;94.20
60027;DHT22;45891;53.006;6.512;2023-05-02T14:21:35;12.80;94.00
60027;DHT22;45891;53.006;6.512;2023-05-02T14:24:04;13.10;93.70
60027;DHT22;45891;53.006;6.512;2023-05-02T14:26:31;13.90;93.60
60027;DHT22;45891;53.006;6.512;2023-05-02T14:28:58;13.90;92.30
60027;DHT22;45891;53.006;6.512;2023-05-02T14:31:24;13.50;93.00
60027;DHT22;45891;53.006;6.512;2023-05-02T14:33:50;13.00;93.00
60027;DHT22;45891;53.006;6.512;2023-05-02T14:36:16;13.00;93.30
60027;DHT22;45891;53.006;6.512;2023-05-02T14:38:42;12.90;93.40
60027;DHT22;45891;53.006;6.512;2023-05-02T14:41:09;12.90;93.60
60027;DHT22;45891;53.006;6.512;2023-05-02T14:43:35;12.50;93.80
60027;DHT22;45891;53.006;6.512;2023-05-02T14:46:02;12.20;94.10
60027;DHT22;45891;53.006;6.512;2023-05-02T14:48:28;12.20;94.40
60027;DHT22;45891;53.006;6.512;2023-05-02T14:50:55;12.20;94.00
60027;DHT22;45891;53.006;6.512;2023-05-02T14:53:22;12.30;93.70
60027;DHT22;45891;53.006;6.512;2023-05-02T14:55:48;12.20;93.70
60027;DHT22;45891;53.006;6.512;2023-05-02T14:58:14;12.30;93.60
60027;DHT22;45891;53.006;6.512;2023-05-02T15:00:45;12.50;93.60
60027;DHT22;45891;53.006;6.512;2023-05-02T15:03:11;12.50;93.30
60027;DHT22;45891;53.006;6.512;2023-05-02T15:05:38;12.60;93.20
60027;DHT22;45891;53.006;6.512;2023-05-02T15:08:05;12.60;93.30
60027;DHT22;45891;53.006;6.512;2023-05-02T15:10:34;12.80;93.40
60027;DHT22;45891;53.006;6.512;2023-05-02T15:13:01;12.90;94.00
60027;DHT22;45891;53.006;6.512;2023-05-02T15:15:28;12.50;94.70
60027;DHT22;45891;53.006;6.512;2023-05-02T15:17:54;12.10;95.10
60027;DHT22;45891;53.006;6.512;2023-05-02T15:20:21;11.80;95.40
60027;DHT22;45891;53.006;6.512;2023-05-02T15:22:47;11.70;95.50
60027;DHT22;45891;53.006;6.512;2023-05-02T15:25:13;11.60;95.40
60027;DHT22;45891;53.006;6.512;2023-05-02T15:27:39;11.70;94.70
60027;DHT22;45891;53.006;6.512;2023-05-02T15:30:07;11.90;94.60
60027;DHT22;45891;53.006;6.512;2023-05-02T15:32:33;12.10;94.60
60027;DHT22;45891;53.006;6.512;2023-05-02T15:34:59;12.30;94.00
60027;DHT22;45891;53.006;6.512;2023-05-02T15:37:25;12.30;94.10
60027;DHT22;45891;53.006;6.512;2023-05-02T15:39:51;13.60;93.50
60027;DHT22;45891;53.006;6.512;2023-05-02T15:42:17;14.40;92.60
60027;DHT22;45891;53.006;6.512;2023-05-02T15:44:43;13.90;92.00
60027;DHT22;45891;53.006;6.512;2023-05-02T15:47:10;13.00;93.30
60027;DHT22;45891;53.006;6.512;2023-05-02T15:49:36;12.80;93.60
60027;DHT22;45891;53.006;6.512;2023-05-02T15:52:02;12.40;94.80
60027;DHT22;45891;53.006;6.512;2023-05-02T15:54:28;11.90;95.70
60027;DHT22;45891;53.006;6.512;2023-05-02T15:56:54;11.80;96.00
60027;DHT22;45891;53.006;6.512;2023-05-02T15:59:20;11.60;96.30
60027;DHT22;45891;53.006;6.512;2023-05-02T16:01:46;11.30;96.40
60027;DHT22;45891;53.006;6.512;2023-05-02T16:04:13;11.20;96.50
60027;DHT22;45891;53.006;6.512;2023-05-02T16:06:39;11.10;96.30
60027;DHT22;45891;53.006;6.512;2023-05-02T16:09:06;10.90;96.50
60027;DHT22;45891;53.006;6.512;2023-05-02T16:11:32;10.90;96.50
60027;DHT22;45891;53.006;6.512;2023-05-02T16:13:59;10.80;96.70
60027;DHT22;45891;53.006;6.512;2023-05-02T16:16:29;10.90;96.80
60027;DHT22;45891;53.006;6.512;2023-05-02T16:18:55;10.90;96.80
60027;DHT22;45891;53.006;6.512;2023-05-02T16:21:21;10.90;96.90
60027;DHT22;45891;53.006;6.512;2023-05-02T16:23:47;10.80;96.80
60027;DHT22;45891;53.006;6.512;2023-05-02T16:26:13;10.90;96.90